Погода Краснолукина неделю

Витебская область, Белоруссия

22 - 28 мая
  • 22мая
    Сегодня
    +13°
    +24°
    Пасмурно, дождь
    ВремяПогодаТемператураВлажностьДавлениеВетер, м/сВероятность осадков
    00:00Облачно с прояснениями+15°C82 %747 мм2.9 м/с2 %
    03:00Облачно с прояснениями+14°C83 %747 мм2.6 м/с3 %
    06:00Облачно с прояснениями+13°C86 %747 мм2.4 м/с5 %
    09:00Небольшая облачность+19°C72 %748 мм2.6 м/с5 %
    12:00Небольшая облачность+23°C57 %748 мм3.1 м/с17 %
    15:00Пасмурно, дождь+20°C76 %748 мм2.2 м/с56 %
    18:00Облачно с прояснениями+21°C73 %748 мм2.7 м/с42 %
    21:00Небольшая облачность+18°C83 %748 мм2.4 м/с6 %
  • 23мая
    Четверг
    +12°
    +24°
    Ясно и безоблачно
    ВремяПогодаТемператураВлажностьДавлениеВетер, м/сВероятность осадков
    00:00Практически безоблачно+16°C92 %748 мм2.8 м/с1 %
    03:00Ясно и безоблачно+14°C94 %749 мм3.0 м/с1 %
    06:00Ясно и безоблачно+14°C93 %750 мм4.0 м/с1 %
    09:00Ясно и безоблачно+18°C70 %750 мм4.4 м/с1 %
    12:00Ясно и безоблачно+22°C58 %751 мм5.1 м/с13 %
    15:00Ясно и безоблачно+22°C51 %751 мм5.3 м/с18 %
    18:00Практически безоблачно+23°C49 %750 мм4.7 м/с22 %
    21:00Ясно и безоблачно+19°C61 %752 мм3.5 м/с4 %
  • 24мая
    Пятница
    +11°
    +23°
    Ясно и безоблачно
    ВремяПогодаТемператураВлажностьДавлениеВетер, м/сВероятность осадков
    00:00Ясно и безоблачно+16°C64 %752 мм4.7 м/с2 %
    03:00Ясно и безоблачно+14°C63 %753 мм4.5 м/с2 %
    06:00Ясно и безоблачно+13°C64 %754 мм4.3 м/с2 %
    09:00Ясно и безоблачно+17°C57 %754 мм4.3 м/с2 %
    12:00Ясно и безоблачно+21°C50 %755 мм4.4 м/с2 %
    15:00Ясно и безоблачно+23°C48 %754 мм4.4 м/с3 %
    18:00Ясно и безоблачно+23°C48 %754 мм4.2 м/с4 %
    21:00Ясно и безоблачно+18°C60 %754 мм2.9 м/с4 %
  • 25мая
    Суббота
    +11°
    +25°
    Ясно и безоблачно
    ВремяПогодаТемператураВлажностьДавлениеВетер, м/сВероятность осадков
    00:00Ясно и безоблачно+15°C67 %754 мм3.5 м/с2 %
    03:00Ясно и безоблачно+13°C71 %754 мм3.1 м/с2 %
    06:00Ясно и безоблачно+12°C75 %753 мм3.1 м/с2 %
    09:00Ясно и безоблачно+18°C63 %754 мм2.6 м/с4 %
    12:00Ясно и безоблачно+22°C49 %753 мм2.5 м/с2 %
    15:00Ясно и безоблачно+24°C43 %752 мм2.6 м/с3 %
    18:00Облачно с прояснениями+25°C45 %751 мм2.3 м/с12 %
    21:00Практически безоблачно+19°C66 %751 мм2.2 м/с3 %
  • 26мая
    Воскресенье
    +12°
    +26°
    Практически безоблачно
    ВремяПогодаТемператураВлажностьДавлениеВетер, м/сВероятность осадков
    00:00Ясно и безоблачно+17°C68 %751 мм2.7 м/с4 %
    03:00Ясно и безоблачно+14°C75 %751 мм2.1 м/с7 %
    06:00Ясно и безоблачно+13°C75 %751 мм1.7 м/с8 %
    09:00Ясно и безоблачно+19°C58 %752 мм0.9 м/с8 %
    12:00Ясно и безоблачно+23°C42 %752 мм1.1 м/с5 %
    15:00Практически безоблачно+25°C37 %751 мм0.6 м/с9 %
    18:00Практически безоблачно+26°C38 %751 мм0.6 м/с10 %
    21:00Ясно и безоблачно+21°C58 %751 мм1.2 м/с6 %
Мы используем cookies
Соглашаюсь